sensor_id;sensor_type;location;lat;lon;timestamp;P1;durP1;ratioP1;P2;durP2;ratioP2
67869;SDS011;54673;52.262;6.830;2023-02-18T00:00:24;3.40;;;1.75;;
67869;SDS011;54673;52.262;6.830;2023-02-18T00:02:50;5.20;;;1.90;;
67869;SDS011;54673;52.262;6.830;2023-02-18T00:05:15;4.03;;;1.80;;
67869;SDS011;54673;52.262;6.830;2023-02-18T00:07:41;4.87;;;1.80;;
67869;SDS011;54673;52.262;6.830;2023-02-18T00:10:08;4.37;;;1.70;;
67869;SDS011;54673;52.262;6.830;2023-02-18T00:12:36;3.70;;;1.90;;
67869;SDS011;54673;52.262;6.830;2023-02-18T00:15:02;3.77;;;2.20;;
67869;SDS011;54673;52.262;6.830;2023-02-18T00:17:28;3.42;;;1.70;;
67869;SDS011;54673;52.262;6.830;2023-02-18T00:19:53;3.33;;;1.83;;
67869;SDS011;54673;52.262;6.830;2023-02-18T00:22:19;4.17;;;1.70;;
67869;SDS011;54673;52.262;6.830;2023-02-18T00:24:45;4.27;;;1.93;;
67869;SDS011;54673;52.262;6.830;2023-02-18T00:27:10;3.22;;;1.98;;
67869;SDS011;54673;52.262;6.830;2023-02-18T00:29:36;4.93;;;2.00;;
67869;SDS011;54673;52.262;6.830;2023-02-18T00:32:01;5.23;;;2.30;;
67869;SDS011;54673;52.262;6.830;2023-02-18T00:34:27;5.18;;;2.20;;
67869;SDS011;54673;52.262;6.830;2023-02-18T00:36:52;4.43;;;2.20;;
67869;SDS011;54673;52.262;6.830;2023-02-18T00:39:18;3.97;;;2.27;;
67869;SDS011;54673;52.262;6.830;2023-02-18T00:41:43;4.95;;;2.13;;
67869;SDS011;54673;52.262;6.830;2023-02-18T00:44:10;5.30;;;2.60;;
67869;SDS011;54673;52.262;6.830;2023-02-18T00:46:36;3.35;;;2.20;;
67869;SDS011;54673;52.262;6.830;2023-02-18T00:49:02;4.43;;;2.30;;
67869;SDS011;54673;52.262;6.830;2023-02-18T00:51:28;4.15;;;2.30;;
67869;SDS011;54673;52.262;6.830;2023-02-18T00:53:54;5.45;;;2.30;;
67869;SDS011;54673;52.262;6.830;2023-02-18T00:56:20;4.47;;;2.50;;
67869;SDS011;54673;52.262;6.830;2023-02-18T00:58:46;5.03;;;2.60;;
67869;SDS011;54673;52.262;6.830;2023-02-18T01:01:12;6.40;;;2.60;;
67869;SDS011;54673;52.262;6.830;2023-02-18T01:03:38;5.30;;;2.85;;
67869;SDS011;54673;52.262;6.830;2023-02-18T01:06:05;4.60;;;2.50;;
67869;SDS011;54673;52.262;6.830;2023-02-18T01:08:31;5.38;;;2.70;;
67869;SDS011;54673;52.262;6.830;2023-02-18T01:10:58;5.13;;;2.40;;
67869;SDS011;54673;52.262;6.830;2023-02-18T01:13:24;6.27;;;2.43;;
67869;SDS011;54673;52.262;6.830;2023-02-18T01:15:50;5.72;;;2.50;;
67869;SDS011;54673;52.262;6.830;2023-02-18T01:18:16;4.53;;;2.37;;
67869;SDS011;54673;52.262;6.830;2023-02-18T01:20:42;7.30;;;2.70;;
67869;SDS011;54673;52.262;6.830;2023-02-18T01:23:09;4.32;;;2.47;;
67869;SDS011;54673;52.262;6.830;2023-02-18T01:25:35;7.10;;;2.37;;
67869;SDS011;54673;52.262;6.830;2023-02-18T01:28:02;4.75;;;2.40;;
67869;SDS011;54673;52.262;6.830;2023-02-18T01:30:29;5.50;;;2.63;;
67869;SDS011;54673;52.262;6.830;2023-02-18T01:32:55;4.33;;;2.37;;
67869;SDS011;54673;52.262;6.830;2023-02-18T01:35:22;6.40;;;2.75;;
67869;SDS011;54673;52.262;6.830;2023-02-18T01:37:48;7.57;;;2.87;;
67869;SDS011;54673;52.262;6.830;2023-02-18T01:40:15;5.32;;;3.17;;
67869;SDS011;54673;52.262;6.830;2023-02-18T01:42:42;4.90;;;3.00;;
67869;SDS011;54673;52.262;6.830;2023-02-18T01:47:59;8.60;;;3.22;;
67869;SDS011;54673;52.262;6.830;2023-02-18T01:50:28;4.90;;;2.80;;
67869;SDS011;54673;52.262;6.830;2023-02-18T01:52:55;6.22;;;3.05;;
67869;SDS011;54673;52.262;6.830;2023-02-18T01:55:20;4.90;;;2.77;;
67869;SDS011;54673;52.262;6.830;2023-02-18T01:57:46;6.97;;;3.05;;
67869;SDS011;54673;52.262;6.830;2023-02-18T02:00:13;6.97;;;3.07;;
67869;SDS011;54673;52.262;6.830;2023-02-18T02:02:43;7.55;;;3.50;;
67869;SDS011;54673;52.262;6.830;2023-02-18T02:05:10;8.77;;;3.10;;
67869;SDS011;54673;52.262;6.830;2023-02-18T02:07:37;6.80;;;3.42;;
67869;SDS011;54673;52.262;6.830;2023-02-18T02:10:03;6.78;;;3.20;;
67869;SDS011;54673;52.262;6.830;2023-02-18T02:15:28;7.10;;;3.22;;
67869;SDS011;54673;52.262;6.830;2023-02-18T02:18:23;6.50;;;3.50;;
67869;SDS011;54673;52.262;6.830;2023-02-18T02:35:00;5.77;;;3.63;;
67869;SDS011;54673;52.262;6.830;2023-02-18T02:48:32;9.30;;;4.10;;
67869;SDS011;54673;52.262;6.830;2023-02-18T02:51:08;10.75;;;3.90;;
67869;SDS011;54673;52.262;6.830;2023-02-18T02:53:41;9.05;;;3.70;;
67869;SDS011;54673;52.262;6.830;2023-02-18T02:56:17;7.87;;;3.70;;
67869;SDS011;54673;52.262;6.830;2023-02-18T02:58:57;9.27;;;3.83;;
67869;SDS011;54673;52.262;6.830;2023-02-18T03:07:19;10.48;;;4.22;;
67869;SDS011;54673;52.262;6.830;2023-02-18T03:12:57;10.95;;;4.10;;
67869;SDS011;54673;52.262;6.830;2023-02-18T03:15:52;9.00;;;4.75;;
67869;SDS011;54673;52.262;6.830;2023-02-18T03:21:24;9.55;;;4.10;;
67869;SDS011;54673;52.262;6.830;2023-02-18T03:24:01;10.60;;;4.10;;
67869;SDS011;54673;52.262;6.830;2023-02-18T03:26:41;7.80;;;3.80;;
67869;SDS011;54673;52.262;6.830;2023-02-18T03:29:11;10.25;;;4.00;;
67869;SDS011;54673;52.262;6.830;2023-02-18T03:31:39;9.63;;;4.27;;
67869;SDS011;54673;52.262;6.830;2023-02-18T03:34:19;7.93;;;3.58;;
67869;SDS011;54673;52.262;6.830;2023-02-18T03:36:49;8.63;;;3.55;;
67869;SDS011;54673;52.262;6.830;2023-02-18T03:39:16;11.03;;;4.23;;
67869;SDS011;54673;52.262;6.830;2023-02-18T03:41:43;8.43;;;4.15;;
67869;SDS011;54673;52.262;6.830;2023-02-18T03:44:09;7.82;;;3.90;;
67869;SDS011;54673;52.262;6.830;2023-02-18T03:46:36;10.90;;;4.47;;
67869;SDS011;54673;52.262;6.830;2023-02-18T03:49:03;6.90;;;3.40;;
67869;SDS011;54673;52.262;6.830;2023-02-18T03:51:29;8.63;;;4.30;;
67869;SDS011;54673;52.262;6.830;2023-02-18T03:53:55;8.65;;;3.70;;
67869;SDS011;54673;52.262;6.830;2023-02-18T03:56:21;6.87;;;3.70;;
67869;SDS011;54673;52.262;6.830;2023-02-18T03:58:47;8.10;;;3.95;;
67869;SDS011;54673;52.262;6.830;2023-02-18T04:01:13;8.38;;;4.65;;
67869;SDS011;54673;52.262;6.830;2023-02-18T04:03:38;6.77;;;3.57;;
67869;SDS011;54673;52.262;6.830;2023-02-18T04:06:04;7.23;;;3.63;;
67869;SDS011;54673;52.262;6.830;2023-02-18T04:08:30;9.05;;;3.67;;
67869;SDS011;54673;52.262;6.830;2023-02-18T04:10:55;8.13;;;3.53;;
67869;SDS011;54673;52.262;6.830;2023-02-18T04:13:21;9.20;;;4.25;;
67869;SDS011;54673;52.262;6.830;2023-02-18T04:15:50;7.50;;;3.70;;
67869;SDS011;54673;52.262;6.830;2023-02-18T04:18:16;9.05;;;3.83;;
67869;SDS011;54673;52.262;6.830;2023-02-18T04:20:42;6.93;;;3.87;;
67869;SDS011;54673;52.262;6.830;2023-02-18T04:23:07;7.63;;;3.83;;
67869;SDS011;54673;52.262;6.830;2023-02-18T04:25:33;9.00;;;3.97;;
67869;SDS011;54673;52.262;6.830;2023-02-18T04:27:59;6.80;;;3.63;;
67869;SDS011;54673;52.262;6.830;2023-02-18T04:30:25;9.77;;;3.60;;
67869;SDS011;54673;52.262;6.830;2023-02-18T04:32:50;7.80;;;3.50;;
67869;SDS011;54673;52.262;6.830;2023-02-18T04:35:16;7.25;;;3.50;;
67869;SDS011;54673;52.262;6.830;2023-02-18T04:37:42;8.83;;;4.00;;
67869;SDS011;54673;52.262;6.830;2023-02-18T04:40:07;8.07;;;3.60;;
67869;SDS011;54673;52.262;6.830;2023-02-18T04:42:34;7.88;;;3.78;;
67869;SDS011;54673;52.262;6.830;2023-02-18T04:44:59;7.47;;;3.50;;
67869;SDS011;54673;52.262;6.830;2023-02-18T04:47:25;5.43;;;3.22;;
67869;SDS011;54673;52.262;6.830;2023-02-18T04:49:50;6.43;;;3.07;;
67869;SDS011;54673;52.262;6.830;2023-02-18T04:52:16;6.73;;;3.20;;
67869;SDS011;54673;52.262;6.830;2023-02-18T04:54:42;6.03;;;3.47;;
67869;SDS011;54673;52.262;6.830;2023-02-18T04:57:08;7.40;;;3.50;;
67869;SDS011;54673;52.262;6.830;2023-02-18T04:59:33;5.93;;;3.50;;
67869;SDS011;54673;52.262;6.830;2023-02-18T05:01:59;10.57;;;3.20;;
67869;SDS011;54673;52.262;6.830;2023-02-18T05:04:24;8.85;;;3.40;;
67869;SDS011;54673;52.262;6.830;2023-02-18T05:06:50;5.30;;;3.47;;
67869;SDS011;54673;52.262;6.830;2023-02-18T05:09:15;4.80;;;2.85;;
67869;SDS011;54673;52.262;6.830;2023-02-18T05:11:41;5.47;;;2.93;;
67869;SDS011;54673;52.262;6.830;2023-02-18T05:14:07;6.35;;;3.15;;
67869;SDS011;54673;52.262;6.830;2023-02-18T05:16:33;6.60;;;3.27;;
67869;SDS011;54673;52.262;6.830;2023-02-18T05:18:58;5.97;;;2.97;;
67869;SDS011;54673;52.262;6.830;2023-02-18T05:21:24;5.80;;;2.70;;
67869;SDS011;54673;52.262;6.830;2023-02-18T05:23:50;5.30;;;2.90;;
67869;SDS011;54673;52.262;6.830;2023-02-18T05:26:15;5.65;;;2.70;;
67869;SDS011;54673;52.262;6.830;2023-02-18T05:28:41;4.80;;;2.63;;
67869;SDS011;54673;52.262;6.830;2023-02-18T05:31:06;5.47;;;2.75;;
67869;SDS011;54673;52.262;6.830;2023-02-18T05:33:32;4.30;;;2.10;;
67869;SDS011;54673;52.262;6.830;2023-02-18T05:35:57;5.03;;;2.60;;
67869;SDS011;54673;52.262;6.830;2023-02-18T05:38:23;4.85;;;2.75;;
67869;SDS011;54673;52.262;6.830;2023-02-18T05:40:49;5.07;;;2.50;;
67869;SDS011;54673;52.262;6.830;2023-02-18T05:43:14;4.00;;;2.30;;
67869;SDS011;54673;52.262;6.830;2023-02-18T05:45:40;3.22;;;2.17;;
67869;SDS011;54673;52.262;6.830;2023-02-18T05:48:05;4.33;;;2.50;;
67869;SDS011;54673;52.262;6.830;2023-02-18T05:50:31;5.38;;;2.60;;
67869;SDS011;54673;52.262;6.830;2023-02-18T05:52:57;3.97;;;2.33;;
67869;SDS011;54673;52.262;6.830;2023-02-18T05:55:22;4.28;;;2.03;;
67869;SDS011;54673;52.262;6.830;2023-02-18T05:57:48;3.47;;;2.00;;
67869;SDS011;54673;52.262;6.830;2023-02-18T06:00:14;4.50;;;2.10;;
67869;SDS011;54673;52.262;6.830;2023-02-18T06:02:40;2.97;;;2.10;;
67869;SDS011;54673;52.262;6.830;2023-02-18T06:05:06;3.15;;;1.90;;
67869;SDS011;54673;52.262;6.830;2023-02-18T06:07:32;3.67;;;2.10;;
67869;SDS011;54673;52.262;6.830;2023-02-18T06:09:58;2.50;;;1.60;;
67869;SDS011;54673;52.262;6.830;2023-02-18T06:12:23;4.20;;;2.10;;
67869;SDS011;54673;52.262;6.830;2023-02-18T06:14:49;2.30;;;1.48;;
67869;SDS011;54673;52.262;6.830;2023-02-18T06:17:14;2.87;;;1.77;;
67869;SDS011;54673;52.262;6.830;2023-02-18T06:19:42;2.55;;;1.60;;
67869;SDS011;54673;52.262;6.830;2023-02-18T06:22:08;3.40;;;1.77;;
67869;SDS011;54673;52.262;6.830;2023-02-18T06:24:35;2.25;;;1.70;;
67869;SDS011;54673;52.262;6.830;2023-02-18T06:27:01;3.38;;;1.77;;
67869;SDS011;54673;52.262;6.830;2023-02-18T06:29:27;2.80;;;1.50;;
67869;SDS011;54673;52.262;6.830;2023-02-18T06:31:54;2.72;;;1.80;;
67869;SDS011;54673;52.262;6.830;2023-02-18T06:34:19;2.07;;;1.50;;
67869;SDS011;54673;52.262;6.830;2023-02-18T06:36:45;2.03;;;1.50;;
67869;SDS011;54673;52.262;6.830;2023-02-18T06:39:10;2.30;;;1.40;;
67869;SDS011;54673;52.262;6.830;2023-02-18T06:41:36;2.07;;;1.30;;
67869;SDS011;54673;52.262;6.830;2023-02-18T06:44:01;2.53;;;1.42;;
67869;SDS011;54673;52.262;6.830;2023-02-18T06:46:27;1.90;;;1.30;;
67869;SDS011;54673;52.262;6.830;2023-02-18T06:48:53;2.43;;;1.40;;
67869;SDS011;54673;52.262;6.830;2023-02-18T06:51:18;1.73;;;1.13;;
67869;SDS011;54673;52.262;6.830;2023-02-18T06:53:44;2.60;;;1.13;;
67869;SDS011;54673;52.262;6.830;2023-02-18T06:56:10;1.90;;;1.27;;
67869;SDS011;54673;52.262;6.830;2023-02-18T06:58:36;1.73;;;1.27;;
67869;SDS011;54673;52.262;6.830;2023-02-18T07:01:02;1.45;;;1.23;;
67869;SDS011;54673;52.262;6.830;2023-02-18T07:03:28;1.60;;;1.10;;
67869;SDS011;54673;52.262;6.830;2023-02-18T07:05:53;2.40;;;1.17;;
67869;SDS011;54673;52.262;6.830;2023-02-18T07:08:19;1.70;;;1.30;;
67869;SDS011;54673;52.262;6.830;2023-02-18T07:10:45;2.40;;;1.00;;
67869;SDS011;54673;52.262;6.830;2023-02-18T07:13:11;2.03;;;1.10;;
67869;SDS011;54673;52.262;6.830;2023-02-18T07:15:36;1.20;;;0.90;;
67869;SDS011;54673;52.262;6.830;2023-02-18T07:18:02;1.70;;;1.20;;
67869;SDS011;54673;52.262;6.830;2023-02-18T07:20:28;1.45;;;0.95;;
67869;SDS011;54673;52.262;6.830;2023-02-18T07:22:53;1.47;;;1.00;;
67869;SDS011;54673;52.262;6.830;2023-02-18T07:25:19;1.40;;;1.00;;
67869;SDS011;54673;52.262;6.830;2023-02-18T07:27:45;1.48;;;1.00;;
67869;SDS011;54673;52.262;6.830;2023-02-18T07:30:10;1.07;;;0.87;;
67869;SDS011;54673;52.262;6.830;2023-02-18T07:32:36;1.48;;;1.05;;
67869;SDS011;54673;52.262;6.830;2023-02-18T07:35:03;1.20;;;0.90;;
67869;SDS011;54673;52.262;6.830;2023-02-18T07:37:29;1.30;;;1.10;;
67869;SDS011;54673;52.262;6.830;2023-02-18T07:39:55;1.52;;;1.00;;
67869;SDS011;54673;52.262;6.830;2023-02-18T07:42:21;1.30;;;1.00;;
67869;SDS011;54673;52.262;6.830;2023-02-18T07:44:47;1.35;;;1.00;;
67869;SDS011;54673;52.262;6.830;2023-02-18T07:47:13;1.93;;;1.07;;
67869;SDS011;54673;52.262;6.830;2023-02-18T07:49:42;1.67;;;1.00;;
67869;SDS011;54673;52.262;6.830;2023-02-18T07:52:08;1.40;;;0.90;;
67869;SDS011;54673;52.262;6.830;2023-02-18T07:54:33;1.53;;;1.43;;
67869;SDS011;54673;52.262;6.830;2023-02-18T07:56:59;1.60;;;1.10;;
67869;SDS011;54673;52.262;6.830;2023-02-18T07:59:24;1.60;;;1.23;;
67869;SDS011;54673;52.262;6.830;2023-02-18T08:01:50;2.17;;;1.15;;
67869;SDS011;54673;52.262;6.830;2023-02-18T08:04:16;1.33;;;1.03;;
67869;SDS011;54673;52.262;6.830;2023-02-18T08:06:42;1.50;;;0.80;;
67869;SDS011;54673;52.262;6.830;2023-02-18T08:09:10;1.67;;;0.93;;
67869;SDS011;54673;52.262;6.830;2023-02-18T08:11:36;1.15;;;0.82;;
67869;SDS011;54673;52.262;6.830;2023-02-18T08:14:01;1.07;;;0.90;;
67869;SDS011;54673;52.262;6.830;2023-02-18T08:16:27;1.23;;;0.80;;
67869;SDS011;54673;52.262;6.830;2023-02-18T08:18:53;1.33;;;1.10;;
67869;SDS011;54673;52.262;6.830;2023-02-18T08:21:19;1.65;;;1.10;;
67869;SDS011;54673;52.262;6.830;2023-02-18T08:23:47;1.30;;;0.80;;
67869;SDS011;54673;52.262;6.830;2023-02-18T08:26:13;1.20;;;0.85;;
67869;SDS011;54673;52.262;6.830;2023-02-18T08:28:39;1.10;;;0.90;;
67869;SDS011;54673;52.262;6.830;2023-02-18T08:31:05;1.10;;;0.80;;
67869;SDS011;54673;52.262;6.830;2023-02-18T08:33:31;1.23;;;1.02;;
67869;SDS011;54673;52.262;6.830;2023-02-18T08:35:57;1.13;;;0.80;;
67869;SDS011;54673;52.262;6.830;2023-02-18T08:38:23;2.67;;;1.02;;
67869;SDS011;54673;52.262;6.830;2023-02-18T08:40:49;0.93;;;0.70;;
67869;SDS011;54673;52.262;6.830;2023-02-18T08:43:15;1.37;;;0.90;;
67869;SDS011;54673;52.262;6.830;2023-02-18T08:45:42;1.20;;;1.08;;
67869;SDS011;54673;52.262;6.830;2023-02-18T08:48:09;1.90;;;0.80;;
67869;SDS011;54673;52.262;6.830;2023-02-18T08:50:36;1.10;;;0.60;;
67869;SDS011;54673;52.262;6.830;2023-02-18T08:53:02;1.30;;;0.90;;
67869;SDS011;54673;52.262;6.830;2023-02-18T08:55:29;1.00;;;0.80;;
67869;SDS011;54673;52.262;6.830;2023-02-18T08:57:55;1.10;;;0.80;;
67869;SDS011;54673;52.262;6.830;2023-02-18T09:00:20;1.67;;;0.70;;
67869;SDS011;54673;52.262;6.830;2023-02-18T09:02:46;1.08;;;0.70;;
67869;SDS011;54673;52.262;6.830;2023-02-18T09:05:12;1.67;;;0.80;;
67869;SDS011;54673;52.262;6.830;2023-02-18T09:07:38;1.30;;;0.80;;
67869;SDS011;54673;52.262;6.830;2023-02-18T09:10:04;1.60;;;0.83;;
67869;SDS011;54673;52.262;6.830;2023-02-18T09:12:31;2.20;;;0.90;;
67869;SDS011;54673;52.262;6.830;2023-02-18T09:14:57;1.17;;;1.05;;
67869;SDS011;54673;52.262;6.830;2023-02-18T09:17:23;2.50;;;0.90;;
67869;SDS011;54673;52.262;6.830;2023-02-18T09:19:48;2.03;;;1.10;;
67869;SDS011;54673;52.262;6.830;2023-02-18T09:22:14;5.30;;;1.00;;
67869;SDS011;54673;52.262;6.830;2023-02-18T09:24:40;2.70;;;1.10;;
67869;SDS011;54673;52.262;6.830;2023-02-18T09:27:06;2.55;;;1.20;;
67869;SDS011;54673;52.262;6.830;2023-02-18T09:29:32;4.13;;;1.30;;
67869;SDS011;54673;52.262;6.830;2023-02-18T09:32:01;4.70;;;1.27;;
67869;SDS011;54673;52.262;6.830;2023-02-18T09:34:27;1.60;;;1.00;;
67869;SDS011;54673;52.262;6.830;2023-02-18T09:36:53;3.40;;;1.23;;
67869;SDS011;54673;52.262;6.830;2023-02-18T09:39:19;2.42;;;1.15;;
67869;SDS011;54673;52.262;6.830;2023-02-18T09:41:46;3.40;;;1.30;;
67869;SDS011;54673;52.262;6.830;2023-02-18T09:47:18;2.30;;;1.20;;
67869;SDS011;54673;52.262;6.830;2023-02-18T09:50:06;2.53;;;1.10;;
67869;SDS011;54673;52.262;6.830;2023-02-18T09:52:42;4.32;;;1.13;;
67869;SDS011;54673;52.262;6.830;2023-02-18T09:55:16;2.87;;;1.03;;
67869;SDS011;54673;52.262;6.830;2023-02-18T09:57:46;2.97;;;1.52;;
67869;SDS011;54673;52.262;6.830;2023-02-18T10:00:19;2.90;;;0.90;;
67869;SDS011;54673;52.262;6.830;2023-02-18T10:03:03;5.15;;;1.30;;
67869;SDS011;54673;52.262;6.830;2023-02-18T10:05:39;2.85;;;1.30;;
67869;SDS011;54673;52.262;6.830;2023-02-18T10:08:22;3.73;;;1.00;;
67869;SDS011;54673;52.262;6.830;2023-02-18T10:10:51;3.63;;;1.33;;
67869;SDS011;54673;52.262;6.830;2023-02-18T10:13:21;4.93;;;1.10;;
67869;SDS011;54673;52.262;6.830;2023-02-18T10:15:53;2.77;;;1.27;;
67869;SDS011;54673;52.262;6.830;2023-02-18T10:20:57;4.87;;;1.10;;
67869;SDS011;54673;52.262;6.830;2023-02-18T10:23:31;2.50;;;0.93;;
67869;SDS011;54673;52.262;6.830;2023-02-18T10:25:58;2.55;;;1.10;;
67869;SDS011;54673;52.262;6.830;2023-02-18T10:28:27;2.30;;;0.90;;
67869;SDS011;54673;52.262;6.830;2023-02-18T10:30:58;2.55;;;1.20;;
67869;SDS011;54673;52.262;6.830;2023-02-18T10:36:23;2.22;;;0.80;;
67869;SDS011;54673;52.262;6.830;2023-02-18T10:39:03;4.68;;;1.02;;
67869;SDS011;54673;52.262;6.830;2023-02-18T10:41:43;2.57;;;1.03;;
67869;SDS011;54673;52.262;6.830;2023-02-18T10:47:19;3.03;;;0.80;;
67869;SDS011;54673;52.262;6.830;2023-02-18T10:50:02;2.00;;;0.90;;
67869;SDS011;54673;52.262;6.830;2023-02-18T10:52:51;3.15;;;0.90;;
67869;SDS011;54673;52.262;6.830;2023-02-18T10:55:19;3.17;;;1.00;;
67869;SDS011;54673;52.262;6.830;2023-02-18T10:58:02;3.97;;;0.90;;
67869;SDS011;54673;52.262;6.830;2023-02-18T11:00:32;3.30;;;0.90;;
67869;SDS011;54673;52.262;6.830;2023-02-18T11:05:40;2.45;;;1.00;;
67869;SDS011;54673;52.262;6.830;2023-02-18T11:08:17;3.70;;;1.02;;
67869;SDS011;54673;52.262;6.830;2023-02-18T11:10:49;2.00;;;0.90;;
67869;SDS011;54673;52.262;6.830;2023-02-18T11:13:16;1.80;;;0.73;;
67869;SDS011;54673;52.262;6.830;2023-02-18T11:20:57;14.40;;;1.07;;
67869;SDS011;54673;52.262;6.830;2023-02-18T11:23:27;5.47;;;0.90;;
67869;SDS011;54673;52.262;6.830;2023-02-18T11:25:57;7.77;;;1.40;;
67869;SDS011;54673;52.262;6.830;2023-02-18T11:31:05;4.15;;;1.00;;
67869;SDS011;54673;52.262;6.830;2023-02-18T11:33:40;7.00;;;0.70;;
67869;SDS011;54673;52.262;6.830;2023-02-18T11:41:20;3.90;;;0.75;;
67869;SDS011;54673;52.262;6.830;2023-02-18T11:43:54;1.98;;;0.68;;
67869;SDS011;54673;52.262;6.830;2023-02-18T11:46:22;3.07;;;0.80;;
67869;SDS011;54673;52.262;6.830;2023-02-18T11:48:49;2.40;;;0.80;;
67869;SDS011;54673;52.262;6.830;2023-02-18T11:56:38;2.65;;;0.70;;
67869;SDS011;54673;52.262;6.830;2023-02-18T11:59:04;8.07;;;1.13;;
67869;SDS011;54673;52.262;6.830;2023-02-18T12:04:30;2.50;;;0.73;;
67869;SDS011;54673;52.262;6.830;2023-02-18T12:09:47;3.30;;;0.77;;
67869;SDS011;54673;52.262;6.830;2023-02-18T12:12:16;3.90;;;0.93;;
67869;SDS011;54673;52.262;6.830;2023-02-18T12:14:48;1.83;;;0.80;;
67869;SDS011;54673;52.262;6.830;2023-02-18T12:22:40;5.57;;;1.08;;
67869;SDS011;54673;52.262;6.830;2023-02-18T12:27:55;4.40;;;0.95;;
67869;SDS011;54673;52.262;6.830;2023-02-18T12:33:45;5.97;;;1.00;;
67869;SDS011;54673;52.262;6.830;2023-02-18T12:55:46;4.45;;;1.02;;
67869;SDS011;54673;52.262;6.830;2023-02-18T13:00:51;4.10;;;1.23;;
67869;SDS011;54673;52.262;6.830;2023-02-18T13:03:45;4.00;;;1.75;;
67869;SDS011;54673;52.262;6.830;2023-02-18T13:09:40;8.00;;;1.27;;
67869;SDS011;54673;52.262;6.830;2023-02-18T13:14:55;3.47;;;1.25;;
67869;SDS011;54673;52.262;6.830;2023-02-18T13:17:28;3.57;;;1.13;;
67869;SDS011;54673;52.262;6.830;2023-02-18T13:20:00;6.13;;;1.27;;
67869;SDS011;54673;52.262;6.830;2023-02-18T13:22:31;5.20;;;1.30;;
67869;SDS011;54673;52.262;6.830;2023-02-18T13:24:57;3.80;;;1.03;;
67869;SDS011;54673;52.262;6.830;2023-02-18T13:27:35;5.72;;;1.30;;
67869;SDS011;54673;52.262;6.830;2023-02-18T13:33:16;5.60;;;1.17;;
67869;SDS011;54673;52.262;6.830;2023-02-18T13:35:57;4.15;;;1.30;;
67869;SDS011;54673;52.262;6.830;2023-02-18T13:38:35;3.27;;;1.10;;
67869;SDS011;54673;52.262;6.830;2023-02-18T13:41:10;6.85;;;1.10;;
67869;SDS011;54673;52.262;6.830;2023-02-18T13:43:36;3.20;;;1.40;;
67869;SDS011;54673;52.262;6.830;2023-02-18T13:46:17;3.28;;;1.27;;
67869;SDS011;54673;52.262;6.830;2023-02-18T13:51:27;2.43;;;1.03;;
67869;SDS011;54673;52.262;6.830;2023-02-18T13:54:42;3.05;;;1.20;;
67869;SDS011;54673;52.262;6.830;2023-02-18T13:56:49;2.90;;;0.90;;
67869;SDS011;54673;52.262;6.830;2023-02-18T13:59:24;3.53;;;1.05;;
67869;SDS011;54673;52.262;6.830;2023-02-18T14:01:53;3.25;;;1.23;;
67869;SDS011;54673;52.262;6.830;2023-02-18T14:04:35;3.00;;;1.10;;
67869;SDS011;54673;52.262;6.830;2023-02-18T14:09:57;6.83;;;1.00;;
67869;SDS011;54673;52.262;6.830;2023-02-18T14:17:42;4.03;;;0.90;;
67869;SDS011;54673;52.262;6.830;2023-02-18T14:22:44;4.30;;;1.00;;
67869;SDS011;54673;52.262;6.830;2023-02-18T14:27:36;2.70;;;0.88;;
67869;SDS011;54673;52.262;6.830;2023-02-18T14:30:04;1.73;;;0.77;;
67869;SDS011;54673;52.262;6.830;2023-02-18T14:32:31;4.13;;;1.02;;
67869;SDS011;54673;52.262;6.830;2023-02-18T14:37:39;2.73;;;0.93;;
67869;SDS011;54673;52.262;6.830;2023-02-18T14:43:14;2.15;;;1.20;;
67869;SDS011;54673;52.262;6.830;2023-02-18T14:51:56;4.10;;;0.90;;
67869;SDS011;54673;52.262;6.830;2023-02-18T14:54:23;6.60;;;0.80;;
67869;SDS011;54673;52.262;6.830;2023-02-18T14:59:36;4.43;;;1.10;;
67869;SDS011;54673;52.262;6.830;2023-02-18T15:02:24;1.93;;;0.60;;
67869;SDS011;54673;52.262;6.830;2023-02-18T15:04:52;9.95;;;1.13;;
67869;SDS011;54673;52.262;6.830;2023-02-18T15:07:19;5.93;;;1.10;;
67869;SDS011;54673;52.262;6.830;2023-02-18T15:09:46;4.78;;;0.95;;
67869;SDS011;54673;52.262;6.830;2023-02-18T15:12:14;4.07;;;0.90;;
67869;SDS011;54673;52.262;6.830;2023-02-18T15:14:44;2.13;;;1.00;;
67869;SDS011;54673;52.262;6.830;2023-02-18T15:17:13;2.53;;;0.85;;
67869;SDS011;54673;52.262;6.830;2023-02-18T15:19:51;3.95;;;1.30;;
67869;SDS011;54673;52.262;6.830;2023-02-18T15:22:23;6.57;;;1.00;;
67869;SDS011;54673;52.262;6.830;2023-02-18T15:24:51;1.90;;;0.77;;
67869;SDS011;54673;52.262;6.830;2023-02-18T15:27:20;9.70;;;1.40;;
67869;SDS011;54673;52.262;6.830;2023-02-18T15:29:55;2.67;;;0.90;;
67869;SDS011;54673;52.262;6.830;2023-02-18T15:32:30;6.70;;;1.35;;
67869;SDS011;54673;52.262;6.830;2023-02-18T15:34:57;6.77;;;0.93;;
67869;SDS011;54673;52.262;6.830;2023-02-18T15:37:27;2.03;;;0.90;;
67869;SDS011;54673;52.262;6.830;2023-02-18T15:39:53;3.17;;;0.82;;
67869;SDS011;54673;52.262;6.830;2023-02-18T15:42:29;1.40;;;0.80;;
67869;SDS011;54673;52.262;6.830;2023-02-18T15:45:08;5.38;;;0.98;;
67869;SDS011;54673;52.262;6.830;2023-02-18T15:47:53;4.13;;;1.20;;
67869;SDS011;54673;52.262;6.830;2023-02-18T15:50:22;2.80;;;1.10;;
67869;SDS011;54673;52.262;6.830;2023-02-18T15:52:48;3.92;;;1.33;;
67869;SDS011;54673;52.262;6.830;2023-02-18T15:55:21;4.57;;;1.10;;
67869;SDS011;54673;52.262;6.830;2023-02-18T15:57:55;3.10;;;1.20;;
67869;SDS011;54673;52.262;6.830;2023-02-18T16:00:26;2.25;;;0.90;;
67869;SDS011;54673;52.262;6.830;2023-02-18T16:03:03;2.10;;;0.93;;
67869;SDS011;54673;52.262;6.830;2023-02-18T16:05:36;2.45;;;0.70;;
67869;SDS011;54673;52.262;6.830;2023-02-18T16:08:09;2.87;;;1.10;;
67869;SDS011;54673;52.262;6.830;2023-02-18T16:10:41;3.65;;;0.93;;
67869;SDS011;54673;52.262;6.830;2023-02-18T16:13:14;6.25;;;0.90;;
67869;SDS011;54673;52.262;6.830;2023-02-18T16:15:43;1.70;;;0.80;;
67869;SDS011;54673;52.262;6.830;2023-02-18T16:18:24;3.10;;;1.10;;
67869;SDS011;54673;52.262;6.830;2023-02-18T16:20:55;4.30;;;1.10;;
67869;SDS011;54673;52.262;6.830;2023-02-18T16:23:29;5.40;;;1.20;;
67869;SDS011;54673;52.262;6.830;2023-02-18T16:28:52;2.33;;;0.93;;
67869;SDS011;54673;52.262;6.830;2023-02-18T16:31:18;2.35;;;1.17;;
67869;SDS011;54673;52.262;6.830;2023-02-18T16:33:45;6.35;;;1.00;;
67869;SDS011;54673;52.262;6.830;2023-02-18T16:36:12;2.90;;;0.93;;
67869;SDS011;54673;52.262;6.830;2023-02-18T16:38:42;3.95;;;1.17;;
67869;SDS011;54673;52.262;6.830;2023-02-18T16:41:10;3.35;;;1.02;;
67869;SDS011;54673;52.262;6.830;2023-02-18T16:43:37;1.63;;;0.80;;
67869;SDS011;54673;52.262;6.830;2023-02-18T16:46:07;2.40;;;1.10;;
67869;SDS011;54673;52.262;6.830;2023-02-18T16:48:42;4.22;;;1.00;;
67869;SDS011;54673;52.262;6.830;2023-02-18T16:53:43;2.75;;;0.90;;
67869;SDS011;54673;52.262;6.830;2023-02-18T16:56:16;5.40;;;1.10;;
67869;SDS011;54673;52.262;6.830;2023-02-18T16:58:43;1.10;;;0.73;;
67869;SDS011;54673;52.262;6.830;2023-02-18T17:03:56;2.03;;;0.93;;
67869;SDS011;54673;52.262;6.830;2023-02-18T17:06:23;3.30;;;0.90;;
67869;SDS011;54673;52.262;6.830;2023-02-18T17:08:49;2.13;;;0.80;;
67869;SDS011;54673;52.262;6.830;2023-02-18T17:11:20;4.85;;;1.17;;
67869;SDS011;54673;52.262;6.830;2023-02-18T17:13:58;3.64;;;1.04;;
67869;SDS011;54673;52.262;6.830;2023-02-18T17:16:27;2.70;;;1.10;;
67869;SDS011;54673;52.262;6.830;2023-02-18T17:18:53;11.07;;;1.10;;
67869;SDS011;54673;52.262;6.830;2023-02-18T17:21:20;4.73;;;1.00;;
67869;SDS011;54673;52.262;6.830;2023-02-18T17:23:47;2.78;;;0.90;;
67869;SDS011;54673;52.262;6.830;2023-02-18T17:26:16;4.23;;;1.00;;
67869;SDS011;54673;52.262;6.830;2023-02-18T17:28:48;3.15;;;0.90;;
67869;SDS011;54673;52.262;6.830;2023-02-18T17:31:22;3.45;;;1.27;;
67869;SDS011;54673;52.262;6.830;2023-02-18T17:33:50;2.57;;;1.00;;
67869;SDS011;54673;52.262;6.830;2023-02-18T17:36:17;2.88;;;1.17;;
67869;SDS011;54673;52.262;6.830;2023-02-18T17:38:44;2.15;;;0.98;;